Time;durP1;ratioP1;P1;durP2;ratioP2;P2;SDS_P1;SDS_P2;PMS_P1;PMS_P2;Temp;Humidity;BMP_temperature;BMP_pressure;BME280_temperature;BME280_humidity;BME280_pressure;Samples;Min_cycle;Max_cycle;Signal;HPM_P1;HPM_P2
2024/03/12 00:02:00;;;;;;;3.20;1.70;;;;;;;;;;4894904;29;20059;-81
2024/03/12 00:04:46;;;;;;;3.60;1.92;;;;;;;;;;4896170;29;20721;-82
2024/03/12 00:07:33;;;;;;;3.10;1.90;;;;;;;;;;4894899;29;20044;-82
2024/03/12 00:10:21;;;;;;;5.57;2.30;;;;;;;;;;4895071;29;20024;-82
2024/03/12 00:13:09;;;;;;;4.05;1.95;;;;;;;;;;4907176;29;20494;-81
2024/03/12 00:15:55;;;;;;;3.80;1.90;;;;;;;;;;4893848;29;20032;-81
2024/03/12 00:18:41;;;;;;;3.42;1.85;;;;;;;;;;4895459;29;20036;-81
2024/03/12 00:21:26;;;;;;;6.15;2.00;;;;;;;;;;4895478;29;20122;-82
2024/03/12 00:24:12;;;;;;;3.72;1.92;;;;;;;;;;4894965;29;20036;-82
2024/03/12 00:26:58;;;;;;;6.15;2.05;;;;;;;;;;4894671;29;20111;-82
2024/03/12 00:29:45;;;;;;;3.10;1.83;;;;;;;;;;4890822;29;20039;-81
2024/03/12 00:32:31;;;;;;;3.63;1.70;;;;;;;;;;4890145;29;20034;-81
2024/03/12 00:35:17;;;;;;;3.80;1.80;;;;;;;;;;4881477;29;20077;-81
2024/03/12 00:38:03;;;;;;;5.55;2.63;;;;;;;;;;4875197;29;20036;-81
2024/03/12 00:40:50;;;;;;;4.43;2.28;;;;;;;;;;4888050;29;20077;-81
2024/03/12 00:43:35;;;;;;;4.50;1.80;;;;;;;;;;4890360;29;20033;-81
2024/03/12 00:46:24;;;;;;;3.65;1.92;;;;;;;;;;4889513;29;20032;-79
2024/03/12 00:49:10;;;;;;;4.00;2.10;;;;;;;;;;4896628;29;20044;-81
2024/03/12 00:51:54;;;;;;;4.20;2.00;;;;;;;;;;4912766;29;20027;-81
2024/03/12 00:54:39;;;;;;;2.83;1.75;;;;;;;;;;4902061;29;20068;-80
2024/03/12 00:57:27;;;;;;;3.35;1.85;;;;;;;;;;4881531;29;20092;-80
2024/03/12 01:00:25;;;;;;;3.33;1.58;;;;;;;;;;4881009;29;20032;-81
2024/03/12 01:03:11;;;;;;;13.73;2.40;;;;;;;;;;4887051;29;20103;-81
2024/03/12 01:05:57;;;;;;;3.97;2.22;;;;;;;;;;4879082;29;20061;-80
2024/03/12 01:08:43;;;;;;;4.10;1.70;;;;;;;;;;4879544;29;20064;-81
2024/03/12 01:11:28;;;;;;;3.75;1.88;;;;;;;;;;4877719;29;20016;-80
2024/03/12 01:14:14;;;;;;;6.53;2.40;;;;;;;;;;4884555;29;20067;-80
2024/03/12 01:17:00;;;;;;;4.47;2.40;;;;;;;;;;4872620;29;20108;-81
2024/03/12 01:19:45;;;;;;;4.13;1.92;;;;;;;;;;4878897;29;20808;-82
2024/03/12 01:22:30;;;;;;;3.42;1.83;;;;;;;;;;4884151;29;20041;-82
2024/03/12 01:25:16;;;;;;;7.50;2.13;;;;;;;;;;4880813;29;20060;-81
2024/03/12 01:28:01;;;;;;;3.70;2.10;;;;;;;;;;4879380;29;20024;-82
2024/03/12 01:30:46;;;;;;;3.63;1.83;;;;;;;;;;4878065;29;20147;-81
2024/03/12 01:33:31;;;;;;;6.47;2.50;;;;;;;;;;4884902;29;20240;-82
2024/03/12 01:36:20;;;;;;;7.32;2.75;;;;;;;;;;4897147;29;20413;-81
2024/03/12 01:39:08;;;;;;;2.97;2.13;;;;;;;;;;4895470;29;20039;-81
2024/03/12 01:41:53;;;;;;;5.43;2.20;;;;;;;;;;4895574;29;20202;-81
2024/03/12 01:44:39;;;;;;;4.72;2.28;;;;;;;;;;4896221;29;20399;-80
2024/03/12 01:47:24;;;;;;;5.53;2.30;;;;;;;;;;4903088;29;20107;-80
2024/03/12 01:50:10;;;;;;;3.95;1.90;;;;;;;;;;4896341;29;20036;-80
2024/03/12 01:52:56;;;;;;;7.32;2.72;;;;;;;;;;4903569;29;20036;-80
2024/03/12 01:55:44;;;;;;;4.20;2.30;;;;;;;;;;4895662;29;20047;-79
2024/03/12 01:58:32;;;;;;;4.68;2.40;;;;;;;;;;4894587;29;20028;-80
2024/03/12 02:01:20;;;;;;;2.88;2.13;;;;;;;;;;4909639;29;20123;-82
2024/03/12 02:04:06;;;;;;;2.63;1.98;;;;;;;;;;4896913;29;20043;-80
2024/03/12 02:06:51;;;;;;;3.60;2.33;;;;;;;;;;4895230;29;20035;-80
2024/03/12 02:09:37;;;;;;;3.90;2.70;;;;;;;;;;4896091;29;20047;-79
2024/03/12 02:12:22;;;;;;;4.05;2.15;;;;;;;;;;4891667;29;20092;-79
2024/03/12 02:15:08;;;;;;;3.85;2.28;;;;;;;;;;4896583;29;20028;-79
2024/03/12 02:17:53;;;;;;;5.72;2.42;;;;;;;;;;4896885;29;20567;-80
2024/03/12 02:20:38;;;;;;;3.83;2.65;;;;;;;;;;4896963;29;20063;-80
2024/03/12 02:23:33;;;;;;;6.55;2.47;;;;;;;;;;4898909;29;20090;-79
2024/03/12 02:26:18;;;;;;;6.35;3.42;;;;;;;;;;4900060;29;20502;-79
2024/03/12 02:29:07;;;;;;;5.32;2.47;;;;;;;;;;4895519;29;20082;-79
2024/03/12 02:31:52;;;;;;;3.92;2.00;;;;;;;;;;4897800;29;20028;-82
2024/03/12 02:34:38;;;;;;;6.63;3.00;;;;;;;;;;4896636;29;20079;-83
2024/03/12 02:37:23;;;;;;;3.78;1.80;;;;;;;;;;4908656;29;20028;-83
2024/03/12 02:40:12;;;;;;;8.35;2.33;;;;;;;;;;4897666;29;20028;-83
2024/03/12 02:42:57;;;;;;;2.25;1.80;;;;;;;;;;4896824;29;20087;-82
2024/03/12 02:45:42;;;;;;;3.65;2.17;;;;;;;;;;4890621;29;20104;-81
2024/03/12 02:48:29;;;;;;;4.00;2.47;;;;;;;;;;4895980;29;20036;-81
2024/03/12 02:51:14;;;;;;;3.80;2.20;;;;;;;;;;4895561;29;20159;-82
2024/03/12 02:53:59;;;;;;;4.20;2.00;;;;;;;;;;4896544;29;20028;-81
2024/03/12 02:56:45;;;;;;;3.63;2.33;;;;;;;;;;4895156;29;20034;-81
2024/03/12 02:59:30;;;;;;;3.25;2.30;;;;;;;;;;4896264;29;20028;-80
2024/03/12 03:02:15;;;;;;;4.45;2.00;;;;;;;;;;4911180;29;20036;-81
2024/03/12 03:05:00;;;;;;;5.13;2.33;;;;;;;;;;4899717;29;20056;-81
2024/03/12 03:07:48;;;;;;;4.40;2.10;;;;;;;;;;4898043;29;20031;-81
2024/03/12 03:10:33;;;;;;;8.80;2.42;;;;;;;;;;4909855;29;20055;-81
2024/03/12 03:13:18;;;;;;;3.35;2.03;;;;;;;;;;4911576;29;20429;-81
2024/03/12 03:16:05;;;;;;;4.25;2.50;;;;;;;;;;4894818;29;20095;-80
2024/03/12 03:18:53;;;;;;;3.63;2.33;;;;;;;;;;4898716;29;20032;-81
2024/03/12 03:21:38;;;;;;;5.88;2.20;;;;;;;;;;4898540;29;20184;-81
2024/03/12 03:24:26;;;;;;;4.45;1.75;;;;;;;;;;4898246;29;20048;-81
2024/03/12 03:27:11;;;;;;;4.25;2.30;;;;;;;;;;4898154;29;20043;-80
2024/03/12 03:29:59;;;;;;;3.85;2.22;;;;;;;;;;4897843;29;20111;-80
2024/03/12 03:32:44;;;;;;;2.45;1.85;;;;;;;;;;4898188;29;20047;-80
2024/03/12 03:35:30;;;;;;;3.65;2.38;;;;;;;;;;4897224;29;20410;-80
2024/03/12 03:38:15;;;;;;;3.15;1.88;;;;;;;;;;4898289;29;20563;-80
2024/03/12 03:41:00;;;;;;;5.53;2.40;;;;;;;;;;4897221;29;20032;-80
2024/03/12 03:43:45;;;;;;;3.72;2.50;;;;;;;;;;4897970;29;20032;-80
2024/03/12 03:46:30;;;;;;;3.83;2.17;;;;;;;;;;4898614;29;20115;-81
2024/03/12 03:49:16;;;;;;;4.40;2.15;;;;;;;;;;4910707;29;20219;-82
2024/03/12 03:52:01;;;;;;;4.15;2.15;;;;;;;;;;4895053;29;20476;-82
2024/03/12 03:54:47;;;;;;;4.18;2.38;;;;;;;;;;4910932;29;20036;-82
2024/03/12 03:57:33;;;;;;;3.47;2.20;;;;;;;;;;4897756;29;20122;-82
2024/03/12 04:00:23;;;;;;;3.15;2.00;;;;;;;;;;4898115;29;20031;-81
2024/03/12 04:03:09;;;;;;;3.05;2.35;;;;;;;;;;4899234;29;20036;-82
2024/03/12 04:05:56;;;;;;;2.75;2.00;;;;;;;;;;4895862;29;20032;-81
2024/03/12 04:08:42;;;;;;;2.85;2.22;;;;;;;;;;4893679;29;20036;-81
2024/03/12 04:11:28;;;;;;;3.22;2.00;;;;;;;;;;4889766;29;20067;-81
2024/03/12 04:14:13;;;;;;;2.85;2.05;;;;;;;;;;4898672;29;20032;-81
2024/03/12 04:17:01;;;;;;;4.55;2.10;;;;;;;;;;4898417;29;20020;-81
2024/03/12 04:19:47;;;;;;;2.50;1.88;;;;;;;;;;4897366;29;20408;-81
2024/03/12 04:22:32;;;;;;;8.20;3.20;;;;;;;;;;4898561;29;20035;-81
2024/03/12 04:25:18;;;;;;;9.27;4.68;;;;;;;;;;4897948;29;20028;-80
2024/03/12 04:28:03;;;;;;;5.47;3.00;;;;;;;;;;4898768;29;20032;-80
2024/03/12 04:30:48;;;;;;;6.65;3.28;;;;;;;;;;4891684;29;20040;-80
2024/03/12 04:33:34;;;;;;;6.10;2.85;;;;;;;;;;4898491;29;20048;-81
2024/03/12 04:36:22;;;;;;;8.45;2.78;;;;;;;;;;4915159;29;20116;-80
2024/03/12 04:42:14;;;;;;;4.68;2.70;;;;;;;;;;4896318;29;20027;-81
2024/03/12 04:45:00;;;;;;;5.80;2.55;;;;;;;;;;4912365;29;20046;-81
2024/03/12 04:47:45;;;;;;;5.65;2.83;;;;;;;;;;4897489;29;20395;-81
2024/03/12 04:50:30;;;;;;;3.75;2.25;;;;;;;;;;4896039;29;20020;-80
2024/03/12 04:53:16;;;;;;;5.30;2.55;;;;;;;;;;4897825;29;20076;-80
2024/03/12 04:56:01;;;;;;;4.53;2.05;;;;;;;;;;4897177;29;20039;-80
2024/03/12 04:58:46;;;;;;;3.92;2.35;;;;;;;;;;4897223;29;20125;-80
2024/03/12 05:01:31;;;;;;;2.90;2.03;;;;;;;;;;4896184;29;20039;-81
2024/03/12 05:04:16;;;;;;;3.78;2.20;;;;;;;;;;4893069;29;20036;-81
2024/03/12 05:07:03;;;;;;;3.17;2.30;;;;;;;;;;4897304;29;20032;-82
2024/03/12 05:09:48;;;;;;;4.15;2.15;;;;;;;;;;4897638;29;20036;-82
2024/03/12 05:12:51;;;;;;;4.40;1.77;;;;;;;;;;4897945;29;20088;-81
2024/03/12 05:15:36;;;;;;;5.25;2.17;;;;;;;;;;4879842;29;20059;-81
2024/03/12 05:18:22;;;;;;;2.95;2.05;;;;;;;;;;4907555;29;20059;-80
2024/03/12 05:21:07;;;;;;;4.95;2.15;;;;;;;;;;4898201;29;20034;-80
2024/03/12 05:23:53;;;;;;;4.32;2.20;;;;;;;;;;4898577;29;20028;-80
2024/03/12 05:26:44;;;;;;;5.18;2.70;;;;;;;;;;4898200;29;20044;-80
2024/03/12 05:29:36;;;;;;;4.75;2.50;;;;;;;;;;4897658;29;20095;-79
2024/03/12 05:32:23;;;;;;;5.38;2.60;;;;;;;;;;4897458;29;20041;-81
2024/03/12 05:35:17;;;;;;;5.00;3.03;;;;;;;;;;4897185;29;20091;-80
2024/03/12 05:38:02;;;;;;;8.63;3.00;;;;;;;;;;4897378;29;20222;-82
2024/03/12 05:41:04;;;;;;;5.97;3.05;;;;;;;;;;4897406;29;20115;-80
2024/03/12 05:49:58;;;;;;;6.15;2.80;;;;;;;;;;4896617;29;20035;-79
2024/03/12 05:52:45;;;;;;;5.55;3.13;;;;;;;;;;4898139;29;20032;-80
2024/03/12 05:55:30;;;;;;;5.07;2.65;;;;;;;;;;4898308;29;20148;-80
2024/03/12 05:58:16;;;;;;;4.75;2.47;;;;;;;;;;4895748;29;20020;-80
2024/03/12 06:01:02;;;;;;;6.50;2.45;;;;;;;;;;4897441;29;20627;-79
2024/03/12 06:03:49;;;;;;;7.85;2.58;;;;;;;;;;4897585;29;20032;-83
2024/03/12 06:06:34;;;;;;;5.93;2.47;;;;;;;;;;4895495;29;20631;-79
2024/03/12 06:09:22;;;;;;;6.22;2.65;;;;;;;;;;4896603;29;20551;-80
2024/03/12 06:12:07;;;;;;;4.43;2.00;;;;;;;;;;4897307;29;20262;-81
2024/03/12 06:14:53;;;;;;;5.05;2.42;;;;;;;;;;4894518;29;20389;-81
2024/03/12 06:17:38;;;;;;;5.50;2.70;;;;;;;;;;4894757;29;20032;-82
2024/03/12 06:20:24;;;;;;;4.28;2.22;;;;;;;;;;4888297;29;20028;-81
2024/03/12 06:23:09;;;;;;;4.03;2.15;;;;;;;;;;4885692;29;20053;-79
2024/03/12 06:25:54;;;;;;;4.22;2.42;;;;;;;;;;4890133;29;20032;-80
2024/03/12 06:28:40;;;;;;;4.65;1.98;;;;;;;;;;4905012;29;20043;-81
2024/03/12 06:31:25;;;;;;;9.73;2.00;;;;;;;;;;4895559;29;20491;-80
2024/03/12 06:34:13;;;;;;;4.82;2.20;;;;;;;;;;4896897;29;20058;-81
2024/03/12 06:36:58;;;;;;;6.32;2.35;;;;;;;;;;4904864;29;20039;-81
2024/03/12 06:39:44;;;;;;;6.13;3.60;;;;;;;;;;4900718;29;20036;-81
2024/03/12 06:42:29;;;;;;;13.23;2.75;;;;;;;;;;4894868;29;20024;-81
2024/03/12 06:45:15;;;;;;;3.92;2.45;;;;;;;;;;4913936;29;20117;-85
2024/03/12 06:48:01;;;;;;;5.25;2.53;;;;;;;;;;4903901;29;20036;-92
2024/03/12 06:50:46;;;;;;;5.63;2.30;;;;;;;;;;4900603;29;20028;-84
2024/03/12 06:53:31;;;;;;;6.07;2.40;;;;;;;;;;4908762;29;20035;-84
2024/03/12 06:56:17;;;;;;;3.58;2.22;;;;;;;;;;4895852;29;20020;-81
2024/03/12 06:59:02;;;;;;;7.10;2.88;;;;;;;;;;4897003;29;20044;-80
2024/03/12 07:01:51;;;;;;;6.50;2.53;;;;;;;;;;4892827;29;20065;-83
2024/03/12 07:04:43;;;;;;;6.97;2.97;;;;;;;;;;4892648;29;20042;-82
2024/03/12 07:07:29;;;;;;;4.75;2.35;;;;;;;;;;4895302;29;20028;-82
2024/03/12 07:10:18;;;;;;;7.68;3.13;;;;;;;;;;4891566;29;20092;-84
2024/03/12 07:13:10;;;;;;;8.43;2.90;;;;;;;;;;4900839;29;20087;-86
2024/03/12 07:15:55;;;;;;;4.47;2.60;;;;;;;;;;4893628;29;20024;-83
2024/03/12 07:18:40;;;;;;;5.32;2.60;;;;;;;;;;4897013;29;20036;-84
2024/03/12 07:21:26;;;;;;;8.32;2.30;;;;;;;;;;4894331;29;20036;-85
2024/03/12 07:24:12;;;;;;;6.40;2.30;;;;;;;;;;4905347;29;20031;-86
2024/03/12 07:26:59;;;;;;;3.33;2.05;;;;;;;;;;4905487;29;20494;-85
2024/03/12 07:29:44;;;;;;;5.25;2.40;;;;;;;;;;4909340;29;20135;-86
2024/03/12 07:32:30;;;;;;;4.93;2.13;;;;;;;;;;4882213;29;20060;-88
2024/03/12 07:35:17;;;;;;;6.18;2.20;;;;;;;;;;4898157;29;20024;-91
2024/03/12 07:38:05;;;;;;;10.30;2.67;;;;;;;;;;4870242;29;20040;-88
2024/03/12 07:40:52;;;;;;;6.80;2.30;;;;;;;;;;4905598;29;20088;-87
2024/03/12 08:35:10;;;;;;;1.35;1.10;;;;;;;;;;5147636;23;20071;-88
2024/03/12 08:38:31;;;;;;;4.15;1.25;;;;;;;;;;4932785;28;20035;-91
2024/03/12 08:41:41;;;;;;;3.35;1.30;;;;;;;;;;4932039;29;20027;-90
2024/03/12 08:44:27;;;;;;;4.18;1.48;;;;;;;;;;4951789;28;20106;-83
2024/03/12 08:47:12;;;;;;;2.15;1.67;;;;;;;;;;4932985;29;20035;-86
2024/03/12 08:49:58;;;;;;;2.08;1.60;;;;;;;;;;4934413;28;20038;-83
2024/03/12 08:52:43;;;;;;;1.95;1.45;;;;;;;;;;4927938;29;20030;-84
2024/03/12 08:55:28;;;;;;;3.05;1.58;;;;;;;;;;4945014;29;20039;-81
2024/03/12 08:58:14;;;;;;;2.03;1.40;;;;;;;;;;4952958;28;20058;-84
2024/03/12 09:01:00;;;;;;;2.72;1.52;;;;;;;;;;4950151;28;20034;-86
2024/03/12 09:03:46;;;;;;;1.63;1.20;;;;;;;;;;4937414;28;20026;-85
2024/03/12 09:06:32;;;;;;;2.30;1.63;;;;;;;;;;4955131;29;20087;-84
2024/03/12 09:09:18;;;;;;;2.55;1.60;;;;;;;;;;4931295;29;20201;-84
2024/03/12 09:12:03;;;;;;;3.13;1.77;;;;;;;;;;4930781;29;20024;-85
2024/03/12 09:14:49;;;;;;;1.42;1.27;;;;;;;;;;4899861;29;20031;-81
2024/03/12 09:17:36;;;;;;;3.30;1.67;;;;;;;;;;4928509;29;20030;-85
2024/03/12 09:20:21;;;;;;;3.88;1.98;;;;;;;;;;4929247;29;20023;-85
2024/03/12 09:23:07;;;;;;;3.67;1.83;;;;;;;;;;4912169;29;20032;-84
2024/03/12 09:25:54;;;;;;;3.40;1.85;;;;;;;;;;4913066;29;20023;-83
2024/03/12 09:28:41;;;;;;;3.13;1.90;;;;;;;;;;4915333;29;20514;-88
2024/03/12 09:31:27;;;;;;;3.15;1.67;;;;;;;;;;4909932;29;20071;-84
2024/03/12 09:34:12;;;;;;;3.17;1.50;;;;;;;;;;4932979;29;20134;-84
2024/03/12 09:36:58;;;;;;;4.28;2.03;;;;;;;;;;4928104;28;20047;-85
2024/03/12 09:39:44;;;;;;;3.63;2.33;;;;;;;;;;4931998;29;20733;-85
2024/03/12 09:42:33;;;;;;;5.63;2.20;;;;;;;;;;4929721;29;20083;-85
2024/03/12 09:45:20;;;;;;;5.22;2.15;;;;;;;;;;4946650;28;20207;-91
2024/03/12 09:48:05;;;;;;;5.05;2.30;;;;;;;;;;4933866;28;20045;-88
2024/03/12 09:50:51;;;;;;;4.65;2.30;;;;;;;;;;4951757;28;20135;-89
2024/03/12 09:53:36;;;;;;;4.35;2.05;;;;;;;;;;4931975;29;20026;-89
2024/03/12 09:56:22;;;;;;;2.72;1.90;;;;;;;;;;4944399;28;20038;-88
2024/03/12 09:59:11;;;;;;;3.92;2.15;;;;;;;;;;4930605;29;20474;-88
2024/03/12 10:01:59;;;;;;;4.97;2.15;;;;;;;;;;4934273;28;20046;-89
2024/03/12 10:04:46;;;;;;;3.90;2.10;;;;;;;;;;4930149;28;20047;-88
2024/03/12 10:07:32;;;;;;;5.10;2.80;;;;;;;;;;4930869;28;20578;-88
2024/03/12 10:10:17;;;;;;;5.97;2.83;;;;;;;;;;4942599;28;20033;-87
2024/03/12 10:13:04;;;;;;;4.68;2.22;;;;;;;;;;4928243;29;20043;-84
2024/03/12 10:15:53;;;;;;;4.93;2.95;;;;;;;;;;4928897;28;20529;-89
2024/03/12 10:18:38;;;;;;;6.20;2.42;;;;;;;;;;4930303;29;20043;-88
2024/03/12 10:21:24;;;;;;;7.75;2.45;;;;;;;;;;4918169;29;20168;-88
2024/03/12 10:24:13;;;;;;;7.50;2.92;;;;;;;;;;4931273;28;20029;-90
2024/03/12 10:27:01;;;;;;;5.15;3.08;;;;;;;;;;4915951;29;20118;-90
2024/03/12 10:29:46;;;;;;;4.45;2.10;;;;;;;;;;4934173;28;20103;-88
2024/03/12 10:32:31;;;;;;;3.45;2.40;;;;;;;;;;4928060;29;20071;-89
2024/03/12 10:35:18;;;;;;;3.42;2.13;;;;;;;;;;4930696;28;20051;-89
2024/03/12 10:38:11;;;;;;;5.00;2.70;;;;;;;;;;4949621;28;20039;-89
2024/03/12 10:40:59;;;;;;;5.63;2.30;;;;;;;;;;4932174;28;20039;-90
2024/03/12 10:43:45;;;;;;;8.30;2.45;;;;;;;;;;4934755;29;20390;-90
2024/03/12 10:46:34;;;;;;;2.25;1.58;;;;;;;;;;4921420;28;20054;-90
2024/03/12 10:49:22;;;;;;;3.10;1.90;;;;;;;;;;4927248;28;20162;-90
2024/03/12 10:52:08;;;;;;;6.63;2.50;;;;;;;;;;4925350;28;20699;-88
2024/03/12 10:54:58;;;;;;;3.60;2.10;;;;;;;;;;4943085;29;20114;-89
2024/03/12 10:57:43;;;;;;;2.95;1.33;;;;;;;;;;4946431;28;20027;-87
2024/03/12 11:00:30;;;;;;;2.58;1.70;;;;;;;;;;4934146;28;20031;-87
2024/03/12 11:03:18;;;;;;;4.40;1.50;;;;;;;;;;4945405;28;20054;-88
2024/03/12 11:06:04;;;;;;;5.03;2.15;;;;;;;;;;4953625;28;20023;-80
2024/03/12 11:08:49;;;;;;;6.93;2.80;;;;;;;;;;4924012;29;20040;-78
2024/03/12 11:11:35;;;;;;;4.72;2.50;;;;;;;;;;4941788;28;20019;-78
2024/03/12 11:14:20;;;;;;;2.97;1.63;;;;;;;;;;4916853;28;20043;-78
2024/03/12 11:17:23;;;;;;;1.92;1.25;;;;;;;;;;4927182;29;20043;-85
2024/03/12 11:20:12;;;;;;;2.45;1.40;;;;;;;;;;4944636;28;20018;-85
2024/03/12 11:23:00;;;;;;;3.10;1.97;;;;;;;;;;4944906;28;20110;-86
2024/03/12 11:25:45;;;;;;;3.90;2.17;;;;;;;;;;4931560;28;20031;-87
2024/03/12 11:28:32;;;;;;;6.72;2.38;;;;;;;;;;4931718;28;20031;-87
2024/03/12 11:31:17;;;;;;;3.38;2.13;;;;;;;;;;4930400;29;20062;-85
2024/03/12 11:34:03;;;;;;;4.43;2.28;;;;;;;;;;4938705;28;20048;-86
2024/03/12 11:36:48;;;;;;;4.05;2.20;;;;;;;;;;4938733;28;20126;-86
2024/03/12 11:39:33;;;;;;;3.60;1.40;;;;;;;;;;4927325;28;20028;-86
2024/03/12 11:42:19;;;;;;;4.68;1.58;;;;;;;;;;4932133;28;20118;-86
2024/03/12 11:45:06;;;;;;;3.35;1.77;;;;;;;;;;4939001;28;20057;-87
2024/03/12 11:47:55;;;;;;;2.97;1.67;;;;;;;;;;4932316;28;20062;-87
2024/03/12 11:50:42;;;;;;;6.18;2.25;;;;;;;;;;4939332;28;20598;-86
2024/03/12 11:53:29;;;;;;;2.40;1.50;;;;;;;;;;4940709;28;20070;-86
2024/03/12 11:56:21;;;;;;;;;;;;;;;;;;4914038;28;20782;-87
2024/03/12 11:59:07;;;;;;;5.53;2.92;;;;;;;;;;4930077;29;19917;-86
2024/03/12 12:01:52;;;;;;;5.57;3.30;;;;;;;;;;4930165;28;20398;-83
2024/03/12 12:04:37;;;;;;;6.55;3.08;;;;;;;;;;4926045;29;20027;-83
2024/03/12 12:07:23;;;;;;;5.32;3.13;;;;;;;;;;4945345;28;20347;-88
2024/03/12 12:10:09;;;;;;;7.25;3.70;;;;;;;;;;4926684;28;20047;-84
2024/03/12 12:12:54;;;;;;;6.82;3.88;;;;;;;;;;4938265;28;20036;-87
2024/03/12 12:15:40;;;;;;;7.40;3.85;;;;;;;;;;4928922;29;20031;-86
2024/03/12 12:18:26;;;;;;;7.35;4.55;;;;;;;;;;4933088;28;20422;-85
2024/03/12 12:21:15;;;;;;;6.93;3.70;;;;;;;;;;4929217;29;20036;-85
2024/03/12 12:24:01;;;;;;;7.72;3.97;;;;;;;;;;4930223;28;20023;-85
2024/03/12 12:26:46;;;;;;;6.45;3.50;;;;;;;;;;4946903;28;21873;-83
2024/03/12 12:29:33;;;;;;;7.20;3.60;;;;;;;;;;4938404;28;20078;-83
2024/03/12 12:32:20;;;;;;;5.07;2.47;;;;;;;;;;4937292;28;20062;-85
2024/03/12 12:35:10;;;;;;;2.63;1.65;;;;;;;;;;4938474;28;20040;-86
2024/03/12 12:37:55;;;;;;;3.25;1.83;;;;;;;;;;4929015;28;20542;-85
2024/03/12 12:40:42;;;;;;;3.40;2.05;;;;;;;;;;4942853;28;20035;-86
2024/03/12 12:43:27;;;;;;;4.43;2.25;;;;;;;;;;4932067;29;20046;-87
2024/03/12 12:46:34;;;;;;;5.93;3.30;;;;;;;;;;4941046;28;20070;-85
2024/03/12 12:49:20;;;;;;;6.75;3.60;;;;;;;;;;4925928;29;20487;-85
2024/03/12 12:52:06;;;;;;;10.18;5.70;;;;;;;;;;4933314;28;20049;-86
2024/03/12 12:54:58;;;;;;;14.07;6.20;;;;;;;;;;4931297;29;20089;-86
2024/03/12 12:57:44;;;;;;;14.15;8.05;;;;;;;;;;4930012;29;20157;-87
2024/03/12 13:00:35;;;;;;;13.65;7.80;;;;;;;;;;4943629;28;20067;-85
2024/03/12 13:03:23;;;;;;;12.43;7.13;;;;;;;;;;4942480;28;20046;-87
2024/03/12 13:06:20;;;;;;;14.00;6.55;;;;;;;;;;4927514;28;20027;-87
2024/03/12 13:09:05;;;;;;;12.32;6.97;;;;;;;;;;4934769;29;20031;-87
2024/03/12 13:11:51;;;;;;;10.10;6.45;;;;;;;;;;4925243;28;20083;-85
2024/03/12 13:14:41;;;;;;;14.48;7.88;;;;;;;;;;4948264;28;20035;-85
2024/03/12 13:17:27;;;;;;;14.07;7.05;;;;;;;;;;4932840;29;20023;-87
2024/03/12 13:20:14;;;;;;;15.75;7.95;;;;;;;;;;4935633;28;20389;-86
2024/03/12 13:22:59;;;;;;;14.85;8.85;;;;;;;;;;4934300;29;20027;-86
2024/03/12 13:25:45;;;;;;;17.58;9.77;;;;;;;;;;4934178;29;20070;-85
2024/03/12 13:28:30;;;;;;;12.75;7.95;;;;;;;;;;4945722;28;20121;-87
2024/03/12 13:31:16;;;;;;;16.67;9.50;;;;;;;;;;4928216;28;20042;-89
2024/03/12 13:34:01;;;;;;;13.80;8.18;;;;;;;;;;4931649;28;20046;-89
2024/03/12 13:36:49;;;;;;;15.02;9.05;;;;;;;;;;4931925;29;20389;-92
2024/03/12 13:39:37;;;;;;;16.48;9.75;;;;;;;;;;4929675;29;20537;-88
2024/03/12 13:42:23;;;;;;;22.83;13.20;;;;;;;;;;4945417;28;20035;-87
2024/03/12 13:45:09;;;;;;;21.02;11.55;;;;;;;;;;4914364;29;20130;-90
2024/03/12 13:47:54;;;;;;;21.90;12.18;;;;;;;;;;4937757;29;20031;-88
2024/03/12 13:50:43;;;;;;;21.30;11.35;;;;;;;;;;4931668;29;20114;-86
2024/03/12 13:53:28;;;;;;;20.23;12.38;;;;;;;;;;4935522;28;20031;-88
2024/03/12 13:56:14;;;;;;;19.70;11.52;;;;;;;;;;4931767;28;20118;-89
2024/03/12 13:59:01;;;;;;;19.55;12.40;;;;;;;;;;4938352;29;20032;-89
2024/03/12 14:01:48;;;;;;;18.58;11.13;;;;;;;;;;4931997;28;20030;-90
2024/03/12 14:04:36;;;;;;;20.13;11.55;;;;;;;;;;4913465;29;20035;-90
2024/03/12 14:07:24;;;;;;;21.27;11.82;;;;;;;;;;4927687;29;20042;-88
2024/03/12 14:10:11;;;;;;;20.08;12.48;;;;;;;;;;4920360;28;20047;-90
2024/03/12 14:49:16;;;;;;;13.50;7.13;;;;;;;;;;4930044;29;20054;-86
2024/03/12 14:52:02;;;;;;;13.73;7.35;;;;;;;;;;4920339;29;20046;-87
2024/03/12 14:54:47;;;;;;;14.05;8.10;;;;;;;;;;4920682;29;20024;-86
2024/03/12 14:57:32;;;;;;;12.00;8.07;;;;;;;;;;4921073;29;20028;-85
2024/03/12 15:00:38;;;;;;;14.45;8.30;;;;;;;;;;4924298;29;20373;-91
2024/03/12 15:15:55;;;;;;;17.25;9.73;;;;;;;;;;5208218;23;20627;-83
2024/03/12 15:18:40;;;;;;;16.15;9.15;;;;;;;;;;4931894;29;20038;-86
2024/03/12 15:21:26;;;;;;;16.25;9.95;;;;;;;;;;4944939;28;20039;-86
2024/03/12 15:24:11;;;;;;;14.55;8.40;;;;;;;;;;4927610;29;20079;-84
2024/03/12 15:26:57;;;;;;;16.23;10.00;;;;;;;;;;4935513;29;20042;-89
2024/03/12 15:29:43;;;;;;;19.13;11.27;;;;;;;;;;4934830;29;20024;-87
2024/03/12 15:32:29;;;;;;;19.25;10.23;;;;;;;;;;4935131;29;20042;-89
2024/03/12 15:35:14;;;;;;;19.98;11.50;;;;;;;;;;4917528;29;20031;-89
2024/03/12 15:38:02;;;;;;;18.67;10.20;;;;;;;;;;4934465;29;20035;-91
2024/03/12 15:40:51;;;;;;;20.05;10.68;;;;;;;;;;4930297;29;20110;-83
2024/03/12 15:43:36;;;;;;;16.55;10.85;;;;;;;;;;4932327;29;20034;-86
2024/03/12 15:46:21;;;;;;;19.23;11.27;;;;;;;;;;4930705;29;20043;-83
2024/03/12 15:49:10;;;;;;;19.60;11.20;;;;;;;;;;4928893;29;20020;-85
2024/03/12 15:51:57;;;;;;;22.03;12.80;;;;;;;;;;4928626;29;20038;-85
2024/03/12 15:54:42;;;;;;;18.23;11.40;;;;;;;;;;4930779;29;20274;-84
2024/03/12 15:57:28;;;;;;;18.85;12.13;;;;;;;;;;4916809;29;20102;-84
2024/03/12 16:00:13;;;;;;;21.10;13.02;;;;;;;;;;4928844;29;20025;-84
2024/03/12 16:03:02;;;;;;;21.42;11.75;;;;;;;;;;4930701;29;20035;-83
2024/03/12 16:05:48;;;;;;;21.80;11.85;;;;;;;;;;4929561;29;20047;-83
2024/03/12 16:08:33;;;;;;;20.42;12.18;;;;;;;;;;4933615;28;20034;-85
2024/03/12 16:11:18;;;;;;;21.02;11.80;;;;;;;;;;4924916;29;20022;-84
2024/03/12 16:14:05;;;;;;;18.35;11.80;;;;;;;;;;4915802;29;20098;-84
2024/03/12 16:16:52;;;;;;;17.75;10.70;;;;;;;;;;4912955;29;20499;-86
2024/03/12 16:19:38;;;;;;;21.67;12.07;;;;;;;;;;4925322;29;20034;-85
2024/03/12 16:22:23;;;;;;;21.23;11.43;;;;;;;;;;4928756;29;20028;-82
2024/03/12 16:25:08;;;;;;;19.55;11.43;;;;;;;;;;4925200;29;20032;-85
2024/03/12 16:27:54;;;;;;;20.60;11.70;;;;;;;;;;4922743;29;20143;-88
2024/03/12 16:30:39;;;;;;;19.02;11.18;;;;;;;;;;4904350;29;20027;-87
2024/03/12 16:33:24;;;;;;;19.25;11.27;;;;;;;;;;4918444;29;20042;-87
2024/03/12 16:36:14;;;;;;;19.83;10.65;;;;;;;;;;4929903;29;20059;-87
2024/03/12 16:38:59;;;;;;;21.52;11.68;;;;;;;;;;4914350;29;20064;-86
2024/03/12 16:41:47;;;;;;;18.13;11.23;;;;;;;;;;4939132;29;20031;-87
2024/03/12 16:44:32;;;;;;;19.75;10.63;;;;;;;;;;4922062;29;20386;-87
2024/03/12 16:47:18;;;;;;;21.27;11.07;;;;;;;;;;4914755;29;20027;-85
2024/03/12 16:50:06;;;;;;;19.60;11.35;;;;;;;;;;4921559;29;20024;-84
2024/03/12 16:52:54;;;;;;;18.58;10.88;;;;;;;;;;4925198;29;20027;-83
2024/03/12 16:55:39;;;;;;;22.70;11.70;;;;;;;;;;4916982;29;20114;-84
2024/03/12 16:58:24;;;;;;;23.45;12.27;;;;;;;;;;4923891;29;20034;-83
2024/03/12 17:01:11;;;;;;;20.77;11.43;;;;;;;;;;4925724;29;20039;-85
2024/03/12 17:03:57;;;;;;;22.27;12.18;;;;;;;;;;4945381;29;20054;-86
2024/03/12 17:06:44;;;;;;;20.13;12.48;;;;;;;;;;4940761;29;20163;-84
2024/03/12 17:09:30;;;;;;;21.92;12.30;;;;;;;;;;4951050;28;20024;-87
2024/03/12 17:12:15;;;;;;;19.65;11.10;;;;;;;;;;4944586;28;20063;-87
2024/03/12 17:15:01;;;;;;;25.70;14.10;;;;;;;;;;4933326;29;20039;-87
2024/03/12 17:17:47;;;;;;;20.95;11.40;;;;;;;;;;4935277;28;20035;-87
2024/03/12 17:20:33;;;;;;;20.58;11.00;;;;;;;;;;4935318;28;20412;-87
2024/03/12 17:23:23;;;;;;;22.77;12.93;;;;;;;;;;4924827;29;20032;-87
2024/03/12 17:26:14;;;;;;;20.45;11.85;;;;;;;;;;4919772;29;20027;-85
2024/03/12 17:29:00;;;;;;;22.50;12.38;;;;;;;;;;4926600;29;20035;-85
2024/03/12 17:31:45;;;;;;;22.02;11.63;;;;;;;;;;4921385;29;20023;-85
2024/03/12 17:34:31;;;;;;;23.88;13.65;;;;;;;;;;4920321;29;20415;-84
2024/03/12 17:37:19;;;;;;;18.98;10.52;;;;;;;;;;4936402;29;20082;-86
2024/03/12 17:40:13;;;;;;;20.73;11.98;;;;;;;;;;4935734;29;20035;-87
2024/03/12 17:43:00;;;;;;;18.73;10.93;;;;;;;;;;4921906;29;20067;-86
2024/03/12 17:45:45;;;;;;;22.75;12.75;;;;;;;;;;4916178;29;20028;-86
2024/03/12 17:48:34;;;;;;;22.75;12.00;;;;;;;;;;4904032;29;20114;-86
2024/03/12 17:51:20;;;;;;;21.35;11.50;;;;;;;;;;4923764;29;20039;-87
2024/03/12 17:54:07;;;;;;;20.77;12.15;;;;;;;;;;4901930;29;20059;-86
2024/03/12 17:56:55;;;;;;;17.60;11.25;;;;;;;;;;4910193;29;20030;-85
2024/03/12 17:59:42;;;;;;;22.48;12.10;;;;;;;;;;4909654;29;20565;-87
2024/03/12 18:02:29;;;;;;;22.48;13.45;;;;;;;;;;4909239;29;20079;-86
2024/03/12 18:05:15;;;;;;;19.65;12.18;;;;;;;;;;4914281;29;20028;-87
2024/03/12 18:08:07;;;;;;;19.45;11.50;;;;;;;;;;4908008;29;20024;-90
2024/03/12 18:10:55;;;;;;;18.70;11.90;;;;;;;;;;4911518;29;20031;-87
2024/03/12 18:13:43;;;;;;;19.17;9.88;;;;;;;;;;4913140;29;20114;-84
2024/03/12 18:16:28;;;;;;;18.45;11.00;;;;;;;;;;4909015;29;20096;-84
2024/03/12 18:19:13;;;;;;;18.60;11.15;;;;;;;;;;4918682;29;20027;-85
2024/03/12 18:21:59;;;;;;;18.25;10.20;;;;;;;;;;4914813;29;20035;-85